Time;durP1;ratioP1;P1;durP2;ratioP2;P2;SDS_P1;SDS_P2;PMS_P1;PMS_P2;Temp;Humidity;BMP_temperature;BMP_pressure;BME280_temperature;BME280_humidity;BME280_pressure;Samples;Min_cycle;Max_cycle;Signal;HPM_P1;HPM_P2
2022/09/28 00:54:25;;;;;;;7.55;6.75;;;8.50;99.90;;;;;;4927722;29;20030;-83
2022/09/28 00:56:55;;;;;;;11.63;7.75;;;8.50;99.90;;;;;;4924534;29;20404;-83
2022/09/28 00:59:34;;;;;;;8.30;7.47;;;8.70;99.90;;;;;;4924156;29;20172;-83
2022/09/28 01:02:09;;;;;;;11.07;8.30;;;8.50;99.90;;;;;;4910496;29;20052;-82
2022/09/28 01:05:10;;;;;;;9.02;8.10;;;8.50;99.90;;;;;;4924611;29;20090;-83
2022/09/28 01:08:01;;;;;;;10.02;8.85;;;8.50;99.90;;;;;;4915445;29;20059;-82
2022/09/28 01:10:29;;;;;;;10.68;8.90;;;9.20;99.90;;;;;;4925953;29;20119;-82
2022/09/28 01:12:56;;;;;;;12.57;10.00;;;8.70;99.90;;;;;;4912435;29;20083;-83
2022/09/28 01:15:25;;;;;;;10.73;9.63;;;8.50;99.90;;;;;;4925232;29;20043;-82
2022/09/28 01:18:03;;;;;;;10.82;9.73;;;8.50;99.90;;;;;;4914721;29;20106;-82
2022/09/28 01:20:53;;;;;;;11.38;10.13;;;8.50;99.90;;;;;;4928844;29;20064;-82
2022/09/28 01:23:43;;;;;;;11.40;10.40;;;8.60;99.90;;;;;;4925331;29;20035;-82
2022/09/28 01:26:20;;;;;;;14.82;11.35;;;8.60;99.90;;;;;;4925887;29;20059;-82
2022/09/28 01:28:49;;;;;;;13.00;10.70;;;8.60;99.90;;;;;;4926097;29;20043;-82
2022/09/28 01:31:16;;;;;;;16.20;11.68;;;8.60;99.90;;;;;;4925958;29;20488;-82
2022/09/28 01:34:02;;;;;;;17.17;10.63;;;8.60;99.90;;;;;;4927865;29;20044;-82
2022/09/28 01:36:42;;;;;;;13.65;10.57;;;8.70;99.90;;;;;;4927667;29;20400;-82
2022/09/28 01:39:15;;;;;;;13.73;11.25;;;8.60;99.90;;;;;;4927046;29;20128;-82
2022/09/28 01:41:43;;;;;;;11.88;10.70;;;8.60;99.90;;;;;;4925531;29;20091;-82
2022/09/28 01:44:14;;;;;;;15.40;10.50;;;8.50;99.90;;;;;;4930452;29;20063;-82
2022/09/28 01:46:44;;;;;;;11.70;10.02;;;8.50;99.90;;;;;;4930260;29;20137;-82
2022/09/28 01:49:26;;;;;;;13.07;10.07;;;8.50;99.90;;;;;;4925705;29;20052;-82
2022/09/28 01:52:13;;;;;;;13.27;9.80;;;8.50;99.90;;;;;;4912771;29;20049;-82
2022/09/28 01:54:51;;;;;;;13.82;10.85;;;8.60;99.90;;;;;;4926662;29;20048;-82
2022/09/28 01:57:47;;;;;;;12.00;10.75;;;8.60;99.90;;;;;;4912774;29;20040;-82
2022/09/28 02:00:15;;;;;;;15.80;12.57;;;8.60;99.90;;;;;;4926163;29;20070;-82
2022/09/28 02:03:04;;;;;;;20.27;14.95;;;8.60;99.90;;;;;;4914653;29;20090;-82
2022/09/28 02:05:40;;;;;;;21.27;15.18;;;8.70;99.90;;;;;;4925392;29;20044;-82
2022/09/28 02:08:24;;;;;;;61.78;15.88;;;8.70;99.90;;;;;;4908824;29;20832;-81
2022/09/28 02:11:11;;;;;;;57.72;15.07;;;8.70;99.90;;;;;;4907508;29;20461;-82
2022/09/28 02:13:45;;;;;;;51.75;16.92;;;8.70;99.90;;;;;;4905925;29;20043;-82
2022/09/28 02:16:55;;;;;;;40.72;14.88;;;8.70;99.90;;;;;;4906501;29;20056;-82
2022/09/28 02:19:27;;;;;;;43.35;15.75;;;8.70;99.90;;;;;;4930792;29;20047;-82
2022/09/28 02:22:49;;;;;;;41.83;16.45;;;8.40;99.90;;;;;;4929302;29;20412;-83
2022/09/28 02:25:44;;;;;;;33.78;15.90;;;8.70;99.90;;;;;;4911346;29;20159;-83
2022/09/28 02:28:35;;;;;;;44.03;14.45;;;8.70;99.90;;;;;;4921862;29;20058;-82
2022/09/28 02:31:49;;;;;;;46.50;15.35;;;8.30;99.90;;;;;;4923431;29;20122;-83
2022/09/28 02:34:50;;;;;;;35.33;14.13;;;8.70;99.90;;;;;;4923517;28;20496;-82
2022/09/28 02:37:19;;;;;;;20.35;13.30;;;8.70;99.90;;;;;;4922074;29;20059;-82
2022/09/28 02:39:48;;;;;;;50.80;15.45;;;8.60;99.90;;;;;;4912837;29;20044;-82
2022/09/28 02:43:03;;;;;;;50.97;15.10;;;8.60;99.90;;;;;;4922453;29;20127;-83
2022/09/28 02:45:59;;;;;;;42.28;15.85;;;8.60;99.90;;;;;;4925984;29;20051;-82
2022/09/28 02:48:59;;;;;;;40.42;14.23;;;8.60;99.90;;;;;;4932096;28;20083;-82
2022/09/28 02:52:24;;;;;;;69.07;15.15;;;8.60;99.90;;;;;;4923202;29;20054;-83
2022/09/28 02:55:29;;;;;;;21.40;12.88;;;8.50;99.90;;;;;;4923769;28;20047;-82
2022/09/28 02:58:25;;;;;;;20.00;14.38;;;8.50;99.90;;;;;;4918862;29;20047;-82
2022/09/28 03:01:01;;;;;;;41.08;14.05;;;8.50;99.90;;;;;;4915413;29;20052;-82
2022/09/28 03:04:16;;;;;;;34.80;15.27;;;8.50;99.90;;;;;;4925121;29;20089;-83
2022/09/28 03:07:45;;;;;;;28.38;14.90;;;8.50;99.90;;;;;;4845384;29;20042;-82
2022/09/28 03:10:51;;;;;;;47.25;15.02;;;8.50;99.90;;;;;;4920871;29;20075;-83
2022/09/28 03:17:09;;;;;;;62.67;15.25;;;8.50;99.90;;;;;;4923352;29;20054;-82
2022/09/28 03:21:03;;;;;;;32.17;14.98;;;8.40;99.90;;;;;;4934838;28;20094;-82
2022/09/28 03:23:34;;;;;;;25.75;14.98;;;8.70;99.90;;;;;;4918670;29;20059;-82
2022/09/28 03:26:47;;;;;;;64.93;15.50;;;8.50;99.90;;;;;;4920221;29;20497;-82
2022/09/28 03:29:33;;;;;;;55.22;15.38;;;8.40;99.90;;;;;;4922859;29;20100;-82
2022/09/28 03:32:06;;;;;;;66.25;15.75;;;8.40;99.90;;;;;;4909044;29;20040;-82
2022/09/28 03:34:34;;;;;;;79.68;16.80;;;8.40;99.90;;;;;;4919926;29;20517;-82
2022/09/28 03:37:01;;;;;;;73.78;18.55;;;8.60;99.90;;;;;;4921219;29;20126;-82
2022/09/28 03:55:17;;;;;;;64.20;16.83;;;8.40;99.90;;;;;;4912496;29;20110;-84
2022/09/28 05:16:19;;;;;;;31.70;12.85;;;8.00;99.90;;;;;;4931558;29;20042;-87
2022/09/28 05:19:29;;;;;;;23.98;12.65;;;8.30;99.90;;;;;;4925939;29;20095;-83
2022/09/28 05:51:32;;;;;;;43.17;16.80;;;8.10;99.90;;;;;;4949665;28;20053;-86
2022/09/28 06:05:01;;;;;;;19.70;16.38;;;8.30;99.90;;;;;;4946756;28;20089;-87
2022/09/28 06:11:26;;;;;;;34.70;17.65;;;8.30;99.90;;;;;;4954754;28;20046;-84
2022/09/28 06:14:12;;;;;;;35.38;17.17;;;8.40;99.90;;;;;;4937586;28;20408;-83
2022/09/28 06:16:49;;;;;;;34.20;17.00;;;9.30;99.90;;;;;;4922717;28;20078;-83
2022/09/28 06:35:31;;;;;;;47.40;18.30;;;8.40;99.90;;;;;;4929772;28;20130;-83
2022/09/28 06:53:32;;;;;;;38.97;16.25;;;8.60;99.90;;;;;;4849545;29;20056;-82
2022/09/28 07:06:57;;;;;;;25.15;16.10;;;8.70;99.90;;;;;;4887962;29;20088;-80
2022/09/28 07:43:43;;;;;;;13.60;12.20;;;9.70;99.90;;;;;;4886073;29;20078;-82
2022/09/28 07:57:31;;;;;;;11.90;10.90;;;10.50;99.90;;;;;;4884395;28;20050;-82
2022/09/28 08:04:43;;;;;;;12.82;11.63;;;10.50;99.90;;;;;;4937536;28;20482;-82
2022/09/28 08:23:15;;;;;;;9.95;8.50;;;11.30;99.90;;;;;;4873156;29;20031;-86
2022/09/28 08:34:15;;;;;;;9.82;8.98;;;11.50;99.90;;;;;;4818478;29;20094;-84
2022/09/28 08:37:33;;;;;;;10.90;9.88;;;11.50;99.90;;;;;;4809827;29;20048;-84
2022/09/28 08:44:34;;;;;;;10.40;9.50;;;11.60;99.90;;;;;;4805317;29;20054;-85
2022/09/28 08:48:42;;;;;;;10.05;9.07;;;11.80;99.90;;;;;;4803747;29;20504;-83
2022/09/28 08:58:10;;;;;;;8.65;7.22;;;12.40;99.90;;;;;;4888538;29;20481;-82
2022/09/28 09:01:18;;;;;;;8.00;7.30;;;12.50;99.90;;;;;;4856384;29;20072;-83
2022/09/28 09:19:15;;;;;;;7.28;6.20;;;12.90;99.90;;;;;;4827000;29;20054;-84
2022/09/28 09:21:49;;;;;;;7.63;7.00;;;12.90;99.90;;;;;;4801275;29;20053;-84
2022/09/28 09:24:39;;;;;;;8.07;6.82;;;12.90;99.90;;;;;;4826430;29;20046;-84
2022/09/28 09:27:18;;;;;;;6.30;5.70;;;12.90;99.90;;;;;;4827416;29;20151;-83
2022/09/28 09:37:24;;;;;;;5.53;5.03;;;13.00;99.90;;;;;;4874100;29;20044;-83
2022/09/28 09:40:30;;;;;;;4.75;4.43;;;13.00;99.90;;;;;;4902509;29;20108;-85
2022/09/28 09:43:23;;;;;;;5.85;4.38;;;13.20;99.90;;;;;;4900495;29;20417;-83
2022/09/28 09:46:27;;;;;;;8.07;5.28;;;13.30;99.90;;;;;;4903729;29;20044;-83
2022/09/28 09:50:03;;;;;;;5.03;4.53;;;13.50;99.90;;;;;;4901665;29;20176;-83
2022/09/28 09:52:53;;;;;;;5.13;4.70;;;13.70;99.90;;;;;;4902589;29;20056;-85
2022/09/28 09:55:26;;;;;;;4.47;3.90;;;14.10;99.90;;;;;;4902550;29;20087;-84
2022/09/28 09:58:43;;;;;;;4.68;4.13;;;14.20;99.90;;;;;;4905992;29;20083;-84
2022/09/28 10:02:28;;;;;;;4.35;2.45;;;14.30;99.90;;;;;;4900351;29;20075;-85
2022/09/28 10:06:14;;;;;;;3.67;3.33;;;14.50;99.90;;;;;;4902607;29;20746;-83
2022/09/28 10:09:30;;;;;;;4.65;3.42;;;14.30;99.90;;;;;;4899943;29;20044;-84
2022/09/28 10:12:14;;;;;;;2.95;2.03;;;14.20;99.90;;;;;;4902193;29;20048;-84
2022/09/28 10:33:48;;;;;;;2.10;1.20;;;14.20;99.90;;;;;;4869020;29;20071;-85
2022/09/28 15:05:12;;;;;;;0.50;0.20;;;12.20;99.90;;;;;;4928591;29;20108;-84
2022/09/28 15:07:48;;;;;;;3.92;0.20;;;11.90;99.90;;;;;;4906976;29;20458;-84
2022/09/28 15:10:30;;;;;;;;;;;11.80;99.90;;;;;;4909496;29;20052;-83
2022/09/28 15:12:57;;;;;;;3.95;0.10;;;11.80;99.90;;;;;;4923133;29;19926;-84
2022/09/28 15:15:34;;;;;;;2.15;0.30;;;11.80;99.90;;;;;;4903906;29;20035;-84
2022/09/28 15:18:32;;;;;;;2.72;0.10;;;11.80;99.90;;;;;;4905908;29;20056;-83
2022/09/28 15:20:59;;;;;;;0.10;0.10;;;11.70;99.90;;;;;;4910482;29;20544;-84
2022/09/28 15:23:36;;;;;;;0.20;0.00;;;11.70;99.90;;;;;;4909340;29;20099;-82
2022/09/28 15:26:07;;;;;;;1.80;0.00;;;11.70;99.90;;;;;;4926594;29;20062;-83
2022/09/28 15:28:35;;;;;;;0.82;0.00;;;11.60;99.90;;;;;;4924497;29;20131;-83
2022/09/28 15:31:03;;;;;;;0.75;0.10;;;11.50;99.90;;;;;;4913040;29;20078;-83
2022/09/28 15:36:43;;;;;;;1.70;0.10;;;11.50;99.90;;;;;;4940672;28;20066;-83
2022/09/28 15:47:22;;;;;;;1.98;0.10;;;11.40;99.90;;;;;;4943988;29;20038;-84
2022/09/28 16:42:40;;;;;;;0.15;0.10;;;11.10;99.90;;;;;;4931744;29;20055;-85
2022/09/28 17:18:37;;;;;;;0.73;0.10;;;10.60;99.90;;;;;;4898719;29;20060;-82
2022/09/28 17:21:08;;;;;;;1.02;0.10;;;10.60;99.90;;;;;;4909252;29;20049;-82
2022/09/28 17:27:44;;;;;;;3.95;0.17;;;10.50;99.90;;;;;;4926567;29;20122;-82
2022/09/28 17:30:32;;;;;;;0.22;0.20;;;10.60;99.90;;;;;;4920094;29;20042;-82
2022/09/28 17:34:01;;;;;;;0.85;0.10;;;10.70;99.90;;;;;;4910034;29;20056;-82
2022/09/28 17:37:02;;;;;;;1.05;0.20;;;10.30;99.90;;;;;;4872375;29;20797;-81
2022/09/28 17:40:35;;;;;;;0.38;0.17;;;10.30;99.90;;;;;;4918502;29;20056;-82
2022/09/28 17:46:47;;;;;;;0.75;0.20;;;10.20;99.90;;;;;;4887242;29;20500;-82
2022/09/28 17:49:18;;;;;;;1.40;0.30;;;10.20;99.90;;;;;;4899814;29;20047;-82
2022/09/28 17:51:44;;;;;;;2.63;0.30;;;10.40;99.90;;;;;;4914026;29;20039;-81
2022/09/28 17:58:19;;;;;;;1.10;0.30;;;10.10;99.90;;;;;;4880490;29;20042;-84
2022/09/28 18:01:05;;;;;;;2.47;0.10;;;10.10;99.90;;;;;;4915978;29;20072;-84
2022/09/28 18:03:31;;;;;;;0.30;0.10;;;10.00;99.90;;;;;;4911355;29;20043;-83
2022/09/28 18:13:41;;;;;;;0.75;0.20;;;9.60;99.90;;;;;;4885462;29;20049;-85
2022/09/28 18:16:45;;;;;;;1.35;0.30;;;9.60;99.90;;;;;;4879049;29;20047;-83
2022/09/28 18:19:17;;;;;;;2.13;0.20;;;9.60;99.90;;;;;;4860775;29;20045;-83
2022/09/28 18:25:23;;;;;;;2.40;0.30;;;9.50;99.90;;;;;;4874262;29;20035;-82
2022/09/28 18:27:53;;;;;;;4.03;0.30;;;9.50;99.90;;;;;;4871102;29;20041;-84
2022/09/28 18:31:08;;;;;;;0.55;0.28;;;9.40;99.90;;;;;;4859693;29;20696;-84
2022/09/28 19:00:25;;;;;;;1.80;0.50;;;9.10;99.90;;;;;;4835096;29;20093;-84
2022/09/28 19:18:42;;;;;;;0.77;0.50;;;8.70;99.90;;;;;;4819155;29;20052;-84
2022/09/28 19:21:46;;;;;;;0.85;0.60;;;8.80;99.90;;;;;;4809969;29;20066;-84
2022/09/28 19:28:34;;;;;;;2.53;0.95;;;8.80;99.90;;;;;;4870336;29;20516;-84
2022/09/28 20:02:33;;;;;;;3.55;1.10;;;8.50;99.90;;;;;;4786176;29;20061;-84
2022/09/28 20:31:48;;;;;;;7.00;0.73;;;8.00;99.90;;;;;;4864650;29;20101;-84
2022/09/28 20:34:49;;;;;;;1.80;0.70;;;7.90;99.90;;;;;;4931662;29;20524;-84
2022/09/28 20:37:30;;;;;;;1.17;0.75;;;7.90;99.90;;;;;;4930609;29;20047;-84
2022/09/28 20:40:55;;;;;;;1.50;0.80;;;7.80;99.90;;;;;;4939282;28;20087;-83
2022/09/28 20:48:05;;;;;;;2.10;0.80;;;7.90;99.90;;;;;;4929436;29;20083;-83
2022/09/28 20:51:34;;;;;;;3.08;0.73;;;7.90;99.90;;;;;;4934075;29;20042;-83
2022/09/28 20:58:14;;;;;;;1.63;0.60;;;7.70;99.90;;;;;;4936202;29;20100;-83
2022/09/28 21:01:19;;;;;;;4.40;1.02;;;7.80;99.90;;;;;;4872194;29;20113;-83
2022/09/28 21:03:51;;;;;;;2.28;1.02;;;7.70;99.90;;;;;;4889850;29;20058;-83
2022/09/28 21:06:24;;;;;;;4.15;0.70;;;7.70;99.90;;;;;;4909107;29;20392;-83
2022/09/28 21:09:40;;;;;;;4.25;0.90;;;7.70;99.90;;;;;;4932651;29;20063;-83
2022/09/28 21:17:10;;;;;;;1.13;0.85;;;7.70;99.90;;;;;;4917193;29;20055;-83
2022/09/28 21:20:06;;;;;;;2.25;0.90;;;7.60;99.90;;;;;;4924624;29;20100;-83
2022/09/28 21:23:44;;;;;;;4.60;0.90;;;7.70;99.90;;;;;;4938406;28;20094;-83
2022/09/28 21:27:32;;;;;;;52.30;2.70;;;7.70;99.90;;;;;;4817093;29;20053;-83
2022/09/28 21:38:43;;;;;;;0.93;0.63;;;7.40;99.90;;;;;;4771175;30;20078;-83
2022/09/28 21:42:39;;;;;;;1.30;0.57;;;7.30;99.90;;;;;;4799918;29;20099;-83
2022/09/28 21:45:53;;;;;;;;;;;7.40;99.90;;;;;;4798269;29;20108;-83
2022/09/28 21:48:20;;;;;;;1.42;0.85;;;7.30;99.90;;;;;;4817413;29;19955;-84
2022/09/28 21:51:12;;;;;;;3.95;0.50;;;7.30;99.90;;;;;;4866905;29;20118;-84
2022/09/28 21:53:52;;;;;;;1.40;1.00;;;7.30;99.90;;;;;;4914977;29;20040;-84
2022/09/28 21:56:33;;;;;;;5.22;1.77;;;7.40;99.90;;;;;;4932322;29;20055;-84
2022/09/28 21:59:38;;;;;;;2.00;1.60;;;7.50;99.90;;;;;;4913357;29;20040;-84
2022/09/28 22:02:24;;;;;;;2.83;1.80;;;7.60;99.90;;;;;;4884882;29;20554;-84
2022/09/28 22:05:32;;;;;;;1.30;1.20;;;7.60;99.90;;;;;;4944403;28;20042;-84
2022/09/28 22:07:58;;;;;;;1.73;1.30;;;7.60;99.90;;;;;;4915989;29;20047;-85
2022/09/28 22:10:23;;;;;;;2.95;1.70;;;7.70;99.90;;;;;;4918134;29;20123;-84
2022/09/28 22:12:49;;;;;;;1.75;1.60;;;7.70;99.90;;;;;;4949070;28;20059;-84
2022/09/28 22:15:14;;;;;;;2.28;1.73;;;7.70;99.90;;;;;;4912761;29;20036;-84
2022/09/28 22:17:40;;;;;;;2.75;1.90;;;7.70;99.90;;;;;;4947744;28;20058;-85
2022/09/28 22:20:06;;;;;;;2.28;1.00;;;7.60;99.90;;;;;;4942937;28;20044;-84
2022/09/28 22:22:31;;;;;;;1.65;0.80;;;7.70;99.90;;;;;;4917006;29;20066;-84
2022/09/28 22:24:57;;;;;;;5.47;1.13;;;7.60;99.90;;;;;;4916813;29;20040;-84
2022/09/28 22:27:23;;;;;;;3.10;1.38;;;7.60;99.90;;;;;;4916542;29;20500;-85
2022/09/28 22:29:49;;;;;;;2.65;1.20;;;7.50;99.90;;;;;;4930693;29;20119;-84
2022/09/28 22:32:15;;;;;;;4.15;1.65;;;7.40;99.90;;;;;;4928679;29;20043;-84
2022/09/28 22:34:40;;;;;;;1.98;1.77;;;7.40;99.90;;;;;;4927219;29;20039;-82
2022/09/28 22:37:06;;;;;;;4.13;1.45;;;7.30;99.90;;;;;;4914884;29;20074;-83
2022/09/28 22:39:32;;;;;;;3.83;1.75;;;7.30;99.90;;;;;;4894940;29;20047;-83
2022/09/28 22:41:58;;;;;;;1.95;1.50;;;7.30;99.90;;;;;;4931962;29;20059;-83
2022/09/28 22:44:24;;;;;;;2.30;1.67;;;7.30;99.90;;;;;;4930926;29;20059;-83
2022/09/28 22:46:49;;;;;;;2.92;1.67;;;7.30;99.90;;;;;;4911649;29;20066;-83
2022/09/28 22:49:15;;;;;;;2.53;2.00;;;7.30;99.90;;;;;;4924985;29;20558;-83
2022/09/28 22:51:41;;;;;;;1.73;1.33;;;7.30;99.90;;;;;;4919228;29;20158;-83
2022/09/28 22:54:07;;;;;;;1.83;1.65;;;7.30;99.90;;;;;;4923554;29;20115;-84
2022/09/28 22:56:32;;;;;;;2.20;1.70;;;7.20;99.90;;;;;;4898190;29;20042;-84
2022/09/28 22:58:58;;;;;;;3.03;2.50;;;7.20;99.90;;;;;;4917896;29;20044;-84
2022/09/28 23:01:26;;;;;;;4.40;3.05;;;7.30;99.90;;;;;;4928544;29;20043;-84
2022/09/28 23:03:53;;;;;;;4.10;3.10;;;7.40;99.90;;;;;;4930849;29;20411;-84
2022/09/28 23:06:22;;;;;;;5.97;3.45;;;7.40;99.90;;;;;;4913218;29;20040;-83
2022/09/28 23:08:49;;;;;;;3.47;3.15;;;7.40;99.90;;;;;;4930550;29;20054;-84
2022/09/28 23:11:15;;;;;;;4.43;2.95;;;7.50;99.90;;;;;;4930193;29;20455;-83
2022/09/28 23:13:40;;;;;;;2.22;1.95;;;7.50;99.90;;;;;;4933166;29;20106;-84
2022/09/28 23:16:09;;;;;;;2.08;1.88;;;7.40;99.90;;;;;;4932317;29;20039;-84
2022/09/28 23:18:39;;;;;;;3.55;2.45;;;7.40;99.90;;;;;;4915697;29;20059;-84
2022/09/28 23:21:06;;;;;;;10.00;2.78;;;7.30;99.90;;;;;;4912573;29;20500;-84
2022/09/28 23:23:33;;;;;;;3.22;2.28;;;7.20;99.90;;;;;;4899438;29;20507;-84
2022/09/28 23:25:59;;;;;;;4.28;3.13;;;7.20;99.90;;;;;;4921455;29;20042;-84
2022/09/28 23:28:25;;;;;;;2.50;2.30;;;7.20;99.90;;;;;;4913300;29;20635;-83
2022/09/28 23:30:51;;;;;;;2.65;2.20;;;7.20;99.90;;;;;;4950069;28;20036;-83
2022/09/28 23:33:19;;;;;;;4.10;2.50;;;7.20;99.90;;;;;;4925172;29;20044;-84
2022/09/28 23:35:44;;;;;;;2.00;1.90;;;7.10;99.90;;;;;;4922892;29;20056;-83
2022/09/28 23:38:16;;;;;;;2.10;1.90;;;7.10;99.90;;;;;;4912806;29;20048;-82
2022/09/28 23:40:45;;;;;;;2.88;2.53;;;7.00;99.90;;;;;;4932092;29;20039;-84
2022/09/28 23:43:12;;;;;;;4.78;3.42;;;7.00;99.90;;;;;;4912629;29;20404;-82
2022/09/28 23:45:37;;;;;;;6.95;2.88;;;7.10;99.90;;;;;;4924178;29;20489;-83
2022/09/28 23:48:03;;;;;;;2.92;2.72;;;7.10;99.90;;;;;;4912865;29;20043;-82
2022/09/28 23:50:28;;;;;;;3.75;3.08;;;7.10;99.90;;;;;;4899225;29;20043;-83
2022/09/28 23:52:54;;;;;;;3.13;2.83;;;7.10;99.90;;;;;;4902063;29;20063;-83
2022/09/28 23:55:20;;;;;;;3.75;3.35;;;7.10;99.90;;;;;;4911783;29;20130;-84
2022/09/28 23:57:45;;;;;;;3.17;2.97;;;7.00;99.90;;;;;;4916170;29;20087;-82
